Hauptseite
METAR-TAF:

METAR-TAF

Flughäfen :

Landsberg, Deutschland

Fliegerhorst Landsberg/Lech

Breite: 48-04N, Länge: 010-54E, Höhe: 623 m

Beobachtung

Neuester Wetterbericht von vor 33 Minuten, um 04:20 UTC
Wind 3 kt aus Süd/Südwest
Temperatur 17°C
Luftfeuchtigkeit 77%
Luftdruck 1018 hPa
Sichtweite 10 km oder mehr
Aufgelockert bewölkt in der Höhe von 6000 ft
Aufgelockert bewölkt in der Höhe von 14000 ft

METAR: ETSA 240420Z 20003KT 9999 SCT060 SCT140 17/13 Q1018 BLU+BLU+

Zeit: 06:53 (04:53 UTC)

Prognose

Neuester Wetterbericht von vor 53 Minuten, um 04:00 UTC
Gültige Prognose vom 24 um 05 UTC bis 24 um 14 UTC
Wind 6 kt aus West/Südwest
Sichtweite 10 km oder mehr
Leicht bewölkt in der Höhe von 4000 ft
Aufgelockert bewölkt in der Höhe von 14000 ft

TAF: ETSA 240400Z 2405/2414 24006KT 9999 NSW FEW040 SCT140 BY ETGL

Wetterbeobachtungen und Prognosen von mehr als 4000 Flughäfen (METAR und TAF Bericht).

Die verfügbaren Stationen werden durch gelbe und rote Markierungen auf der Karte dargestellt.

Führen Sie die Maus auf sie, um den Namen der Station zu sehen.

Darauf klicken, um die Beobachtung von Wetterbeobachtungen und Prognosen zu sehen.

Um die Karte zu ändern : klicken Sie auf den grünen Tasten mit einem schwarzen Kreuz Zum Vergrößern, auf den grünen Button mit einem Gedankenstrich zu verkleinern, oder auf die grünen Pfeile für benachbarte Karten.


METAR-TAF: